Huvudsida
METAR-TAF:

METAR-TAF

Flygplatser :

Kristiansands flygplats. Kjevik

Kristiansand, Norge

latitud: 58-12N, longitud: 008-05E, höjd: 1 m

Aktuellt väderrapport

Denna rapport gjordes för 14 minuter sedan, klockan 05:50 UTC
Vind 6 kt från nordost
Temperatur 6°C
Fuktighet 100%
Tryck 1031 hPa
Sikt: 6000 m
Brutna moln på en höjd av 1800 ft

METAR: ENCN 160550Z 05006KT 6000 BKN018 06/06 Q1031

Tid: 07:04 (06:04 UTC)

Väderprognos

Denna rapport gjordes för 1 timme och 4 minuter sedan, klockan 05:00 UTC
Prognos gäller från 16 kl. 06 UTC till 16 kl. 15 UTC
Vind 5 kt från sydost
Sikt: 9000 m
Få moln på en höjd av 800 ft
Brutna moln på en höjd av 1800 ft
Sannolikhet 40% :
Temporärt
från 16 kl. 06 UTC till 16 kl. 08 UTC
Sikt: 2000 m
Brutna moln på en höjd av 400 ft
fuktdis
Sannolikhet 30% :
Temporärt
från 16 kl. 08 UTC till 16 kl. 15 UTC
Brutna moln på en höjd av 1200 ft

TAF: ENCN 160500Z 1606/1615 13005KT 9000 FEW008 BKN018 PROB40 TEMPO 1606/1608 2000 BR BKN004 PROB30 TEMPO 1608/1615 BKN012

Aktuella väderrapporter och prognoser från 4000 flygplatser (METAR- och TAF-rapporter).

De tillgängliga stationerna syns som gula och röda prickar på kartan.

För musen över prickarna för att se namnen på stationerna.

Klicka sedan för att få väderrapporter och prognoser.

För att ändra kartan: Klicka på de gröna knapparna med ett svart kors på för att zooma in; den gröna knappen med ett streck på för att zooma ut; eller på de gröna pilarna för angränsande kartor.


METAR-TAF: